sensor_id;sensor_type;location;lat;lon;timestamp;temperature;humidity
69009;SHT31;56065;52.472;13.380;2023-07-13T00:00:12;21.05;67.06
69009;SHT31;56065;52.472;13.380;2023-07-13T00:02:40;21.07;67.21
69009;SHT31;56065;52.472;13.380;2023-07-13T00:05:06;21.05;66.92
69009;SHT31;56065;52.472;13.380;2023-07-13T00:07:32;21.06;66.79
69009;SHT31;56065;52.472;13.380;2023-07-13T00:09:57;21.05;66.41
69009;SHT31;56065;52.472;13.380;2023-07-13T00:12:30;21.03;66.36
69009;SHT31;56065;52.472;13.380;2023-07-13T00:14:57;21.00;66.64
69009;SHT31;56065;52.472;13.380;2023-07-13T00:17:24;20.98;66.89
69009;SHT31;56065;52.472;13.380;2023-07-13T00:19:49;20.95;66.74
69009;SHT31;56065;52.472;13.380;2023-07-13T00:22:15;20.94;66.94
69009;SHT31;56065;52.472;13.380;2023-07-13T00:24:41;20.92;66.88
69009;SHT31;56065;52.472;13.380;2023-07-13T00:27:09;20.88;67.21
69009;SHT31;56065;52.472;13.380;2023-07-13T00:29:36;20.86;67.64
69009;SHT31;56065;52.472;13.380;2023-07-13T00:32:04;20.88;67.46
69009;SHT31;56065;52.472;13.380;2023-07-13T00:34:30;20.86;67.75
69009;SHT31;56065;52.472;13.380;2023-07-13T00:36:56;20.85;67.62
69009;SHT31;56065;52.472;13.380;2023-07-13T00:39:21;20.82;67.42
69009;SHT31;56065;52.472;13.380;2023-07-13T00:41:48;20.79;67.55
69009;SHT31;56065;52.472;13.380;2023-07-13T00:44:14;20.78;67.97
69009;SHT31;56065;52.472;13.380;2023-07-13T00:46:40;20.78;67.82
69009;SHT31;56065;52.472;13.380;2023-07-13T00:49:08;20.74;68.11
69009;SHT31;56065;52.472;13.380;2023-07-13T00:51:57;20.63;68.07
69009;SHT31;56065;52.472;13.380;2023-07-13T00:54:32;20.55;68.17
69009;SHT31;56065;52.472;13.380;2023-07-13T00:57:01;20.48;68.71
69009;SHT31;56065;52.472;13.380;2023-07-13T00:59:28;20.45;68.46
69009;SHT31;56065;52.472;13.380;2023-07-13T01:01:54;20.40;68.34
69009;SHT31;56065;52.472;13.380;2023-07-13T01:04:19;20.33;68.38
69009;SHT31;56065;52.472;13.380;2023-07-13T01:06:45;20.27;68.61
69009;SHT31;56065;52.472;13.380;2023-07-13T01:09:12;20.21;68.98
69009;SHT31;56065;52.472;13.380;2023-07-13T01:11:38;20.14;68.95
69009;SHT31;56065;52.472;13.380;2023-07-13T01:14:04;20.04;69.16
69009;SHT31;56065;52.472;13.380;2023-07-13T01:16:32;20.03;69.12
69009;SHT31;56065;52.472;13.380;2023-07-13T01:18:58;19.98;69.52
69009;SHT31;56065;52.472;13.380;2023-07-13T01:21:24;20.00;69.71
69009;SHT31;56065;52.472;13.380;2023-07-13T01:23:50;20.00;69.34
69009;SHT31;56065;52.472;13.380;2023-07-13T01:26:15;20.01;69.31
69009;SHT31;56065;52.472;13.380;2023-07-13T01:28:41;19.98;69.51
69009;SHT31;56065;52.472;13.380;2023-07-13T01:31:06;19.94;69.36
69009;SHT31;56065;52.472;13.380;2023-07-13T01:33:33;19.89;69.56
69009;SHT31;56065;52.472;13.380;2023-07-13T01:35:59;19.86;69.61
69009;SHT31;56065;52.472;13.380;2023-07-13T01:38:27;19.85;69.75
69009;SHT31;56065;52.472;13.380;2023-07-13T01:40:52;19.82;69.87
69009;SHT31;56065;52.472;13.380;2023-07-13T01:43:18;19.77;70.14
69009;SHT31;56065;52.472;13.380;2023-07-13T01:45:44;19.75;70.69
69009;SHT31;56065;52.472;13.380;2023-07-13T01:48:11;19.69;70.83
69009;SHT31;56065;52.472;13.380;2023-07-13T01:50:36;19.67;70.83
69009;SHT31;56065;52.472;13.380;2023-07-13T01:53:02;19.69;70.91
69009;SHT31;56065;52.472;13.380;2023-07-13T01:55:28;19.69;71.05
69009;SHT31;56065;52.472;13.380;2023-07-13T01:57:54;19.65;71.28
69009;SHT31;56065;52.472;13.380;2023-07-13T02:00:19;19.63;71.34
69009;SHT31;56065;52.472;13.380;2023-07-13T02:02:44;19.62;71.78
69009;SHT31;56065;52.472;13.380;2023-07-13T02:05:11;19.65;71.37
69009;SHT31;56065;52.472;13.380;2023-07-13T02:07:37;19.62;71.52
69009;SHT31;56065;52.472;13.380;2023-07-13T02:10:03;19.59;71.53
69009;SHT31;56065;52.472;13.380;2023-07-13T02:12:29;19.58;71.68
69009;SHT31;56065;52.472;13.380;2023-07-13T02:14:54;19.56;71.93
69009;SHT31;56065;52.472;13.380;2023-07-13T02:17:19;19.51;71.87
69009;SHT31;56065;52.472;13.380;2023-07-13T02:19:45;19.49;71.89
69009;SHT31;56065;52.472;13.380;2023-07-13T02:22:10;19.44;72.21
69009;SHT31;56065;52.472;13.380;2023-07-13T02:24:35;19.41;72.37
69009;SHT31;56065;52.472;13.380;2023-07-13T02:27:01;19.35;72.31
69009;SHT31;56065;52.472;13.380;2023-07-13T02:29:26;19.31;72.50
69009;SHT31;56065;52.472;13.380;2023-07-13T02:31:51;19.25;72.67
69009;SHT31;56065;52.472;13.380;2023-07-13T02:34:17;19.24;72.81
69009;SHT31;56065;52.472;13.380;2023-07-13T02:36:42;19.22;72.92
69009;SHT31;56065;52.472;13.380;2023-07-13T02:39:08;19.18;72.92
69009;SHT31;56065;52.472;13.380;2023-07-13T02:41:33;19.19;73.06
69009;SHT31;56065;52.472;13.380;2023-07-13T02:43:59;19.11;73.28
69009;SHT31;56065;52.472;13.380;2023-07-13T02:46:33;19.04;73.54
69009;SHT31;56065;52.472;13.380;2023-07-13T02:48:58;19.00;73.52
69009;SHT31;56065;52.472;13.380;2023-07-13T02:51:24;18.97;73.75
69009;SHT31;56065;52.472;13.380;2023-07-13T02:53:49;18.93;73.98
69009;SHT31;56065;52.472;13.380;2023-07-13T02:56:15;18.90;74.07
69009;SHT31;56065;52.472;13.380;2023-07-13T02:58:40;18.91;73.96
69009;SHT31;56065;52.472;13.380;2023-07-13T03:01:07;18.90;74.29
69009;SHT31;56065;52.472;13.380;2023-07-13T03:03:32;18.88;74.21
69009;SHT31;56065;52.472;13.380;2023-07-13T03:06:00;18.94;74.14
69009;SHT31;56065;52.472;13.380;2023-07-13T03:08:27;18.93;74.36
69009;SHT31;56065;52.472;13.380;2023-07-13T03:11:12;18.95;74.40
69009;SHT31;56065;52.472;13.380;2023-07-13T03:13:39;18.98;74.42
69009;SHT31;56065;52.472;13.380;2023-07-13T03:16:05;19.00;74.71
69009;SHT31;56065;52.472;13.380;2023-07-13T03:18:31;19.07;74.36
69009;SHT31;56065;52.472;13.380;2023-07-13T03:20:57;19.15;74.57
69009;SHT31;56065;52.472;13.380;2023-07-13T03:23:22;19.18;74.12
69009;SHT31;56065;52.472;13.380;2023-07-13T03:25:48;19.21;74.35
69009;SHT31;56065;52.472;13.380;2023-07-13T03:28:14;19.24;74.30
69009;SHT31;56065;52.472;13.380;2023-07-13T03:30:40;19.31;73.86
69009;SHT31;56065;52.472;13.380;2023-07-13T03:33:06;19.35;73.93
69009;SHT31;56065;52.472;13.380;2023-07-13T03:35:31;19.35;73.95
69009;SHT31;56065;52.472;13.380;2023-07-13T03:37:58;19.35;74.07
69009;SHT31;56065;52.472;13.380;2023-07-13T03:40:25;19.38;74.07
69009;SHT31;56065;52.472;13.380;2023-07-13T03:42:51;19.36;74.13
69009;SHT31;56065;52.472;13.380;2023-07-13T03:45:17;19.38;74.45
69009;SHT31;56065;52.472;13.380;2023-07-13T03:47:42;19.42;74.31
69009;SHT31;56065;52.472;13.380;2023-07-13T03:50:07;19.48;74.37
69009;SHT31;56065;52.472;13.380;2023-07-13T03:52:33;19.48;74.53
69009;SHT31;56065;52.472;13.380;2023-07-13T03:54:58;19.49;74.70
69009;SHT31;56065;52.472;13.380;2023-07-13T03:57:24;19.48;74.96
69009;SHT31;56065;52.472;13.380;2023-07-13T03:59:49;19.52;74.74
69009;SHT31;56065;52.472;13.380;2023-07-13T04:02:14;19.56;74.94
69009;SHT31;56065;52.472;13.380;2023-07-13T04:04:40;19.62;75.06
69009;SHT31;56065;52.472;13.380;2023-07-13T04:07:06;19.67;74.91
69009;SHT31;56065;52.472;13.380;2023-07-13T04:09:33;19.73;75.13
69009;SHT31;56065;52.472;13.380;2023-07-13T04:11:58;19.77;75.32
69009;SHT31;56065;52.472;13.380;2023-07-13T04:14:24;19.85;74.94
69009;SHT31;56065;52.472;13.380;2023-07-13T04:16:49;19.92;75.20
69009;SHT31;56065;52.472;13.380;2023-07-13T04:19:14;19.87;74.71
69009;SHT31;56065;52.472;13.380;2023-07-13T04:21:40;19.93;74.83
69009;SHT31;56065;52.472;13.380;2023-07-13T04:24:05;19.96;74.76
69009;SHT31;56065;52.472;13.380;2023-07-13T04:26:31;19.96;74.61
69009;SHT31;56065;52.472;13.380;2023-07-13T04:28:57;19.97;74.51
69009;SHT31;56065;52.472;13.380;2023-07-13T04:31:22;19.94;74.23
69009;SHT31;56065;52.472;13.380;2023-07-13T04:33:49;19.97;73.98
69009;SHT31;56065;52.472;13.380;2023-07-13T04:36:15;19.98;74.10
69009;SHT31;56065;52.472;13.380;2023-07-13T04:38:40;20.01;74.10
69009;SHT31;56065;52.472;13.380;2023-07-13T04:41:07;20.13;73.79
69009;SHT31;56065;52.472;13.380;2023-07-13T04:43:34;20.16;73.54
69009;SHT31;56065;52.472;13.380;2023-07-13T04:46:07;20.17;73.50
69009;SHT31;56065;52.472;13.380;2023-07-13T04:48:33;20.28;73.06
69009;SHT31;56065;52.472;13.380;2023-07-13T04:50:59;20.38;72.79
69009;SHT31;56065;52.472;13.380;2023-07-13T04:53:26;20.43;72.64
69009;SHT31;56065;52.472;13.380;2023-07-13T04:55:51;20.49;72.48
69009;SHT31;56065;52.472;13.380;2023-07-13T04:58:17;20.45;72.47
69009;SHT31;56065;52.472;13.380;2023-07-13T05:00:42;20.54;72.80
69009;SHT31;56065;52.472;13.380;2023-07-13T05:03:07;20.71;72.02
69009;SHT31;56065;52.472;13.380;2023-07-13T05:05:33;20.79;71.74
69009;SHT31;56065;52.472;13.380;2023-07-13T05:07:59;20.91;71.51
69009;SHT31;56065;52.472;13.380;2023-07-13T05:10:24;20.94;71.73
69009;SHT31;56065;52.472;13.380;2023-07-13T05:12:50;21.02;71.72
69009;SHT31;56065;52.472;13.380;2023-07-13T05:15:16;21.13;71.49
69009;SHT31;56065;52.472;13.380;2023-07-13T05:17:46;21.16;71.19
69009;SHT31;56065;52.472;13.380;2023-07-13T05:20:11;21.27;71.09
69009;SHT31;56065;52.472;13.380;2023-07-13T05:22:36;21.39;70.56
69009;SHT31;56065;52.472;13.380;2023-07-13T05:25:05;21.49;70.27
69009;SHT31;56065;52.472;13.380;2023-07-13T05:27:30;21.57;70.17
69009;SHT31;56065;52.472;13.380;2023-07-13T05:29:55;21.63;70.03
69009;SHT31;56065;52.472;13.380;2023-07-13T05:32:21;21.71;70.44
69009;SHT31;56065;52.472;13.380;2023-07-13T05:34:46;21.83;69.88
69009;SHT31;56065;52.472;13.380;2023-07-13T05:37:12;21.88;69.55
69009;SHT31;56065;52.472;13.380;2023-07-13T05:39:37;21.97;69.93
69009;SHT31;56065;52.472;13.380;2023-07-13T05:42:02;22.09;69.94
69009;SHT31;56065;52.472;13.380;2023-07-13T05:44:28;22.18;69.18
69009;SHT31;56065;52.472;13.380;2023-07-13T05:46:54;22.29;69.51
69009;SHT31;56065;52.472;13.380;2023-07-13T05:49:21;22.41;68.59
69009;SHT31;56065;52.472;13.380;2023-07-13T05:51:46;22.49;68.58
69009;SHT31;56065;52.472;13.380;2023-07-13T05:54:11;22.55;68.56
69009;SHT31;56065;52.472;13.380;2023-07-13T05:56:37;22.60;68.31
69009;SHT31;56065;52.472;13.380;2023-07-13T05:59:02;22.72;68.02
69009;SHT31;56065;52.472;13.380;2023-07-13T06:01:29;22.79;68.37
69009;SHT31;56065;52.472;13.380;2023-07-13T06:03:55;22.97;67.89
69009;SHT31;56065;52.472;13.380;2023-07-13T06:06:20;23.07;67.23
69009;SHT31;56065;52.472;13.380;2023-07-13T06:08:45;23.21;67.62
69009;SHT31;56065;52.472;13.380;2023-07-13T06:11:17;23.31;66.93
69009;SHT31;56065;52.472;13.380;2023-07-13T06:13:42;23.40;66.82
69009;SHT31;56065;52.472;13.380;2023-07-13T06:16:08;23.40;66.65
69009;SHT31;56065;52.472;13.380;2023-07-13T06:18:34;23.50;66.08
69009;SHT31;56065;52.472;13.380;2023-07-13T06:21:01;23.59;66.59
69009;SHT31;56065;52.472;13.380;2023-07-13T06:23:26;23.85;65.78
69009;SHT31;56065;52.472;13.380;2023-07-13T06:25:52;24.25;64.81
69009;SHT31;56065;52.472;13.380;2023-07-13T06:28:17;24.91;64.41
69009;SHT31;56065;52.472;13.380;2023-07-13T06:30:42;25.56;62.63
69009;SHT31;56065;52.472;13.380;2023-07-13T06:33:08;26.24;61.12
69009;SHT31;56065;52.472;13.380;2023-07-13T06:35:33;27.09;60.92
69009;SHT31;56065;52.472;13.380;2023-07-13T06:37:59;27.61;58.83
69009;SHT31;56065;52.472;13.380;2023-07-13T06:40:24;28.22;57.33
69009;SHT31;56065;52.472;13.380;2023-07-13T06:42:50;29.06;56.74
69009;SHT31;56065;52.472;13.380;2023-07-13T06:45:15;29.82;55.77
69009;SHT31;56065;52.472;13.380;2023-07-13T06:47:41;30.63;54.69
69009;SHT31;56065;52.472;13.380;2023-07-13T06:50:07;31.19;52.70
69009;SHT31;56065;52.472;13.380;2023-07-13T06:52:32;31.46;51.97
69009;SHT31;56065;52.472;13.380;2023-07-13T06:54:57;31.97;51.25
69009;SHT31;56065;52.472;13.380;2023-07-13T06:57:23;32.41;50.40
69009;SHT31;56065;52.472;13.380;2023-07-13T06:59:48;32.61;49.47
69009;SHT31;56065;52.472;13.380;2023-07-13T07:02:14;33.34;48.91
69009;SHT31;56065;52.472;13.380;2023-07-13T07:04:39;33.74;48.90
69009;SHT31;56065;52.472;13.380;2023-07-13T07:07:04;34.07;47.90
69009;SHT31;56065;52.472;13.380;2023-07-13T07:09:30;34.38;46.62
69009;SHT31;56065;52.472;13.380;2023-07-13T07:11:56;34.68;46.02
69009;SHT31;56065;52.472;13.380;2023-07-13T07:14:22;34.89;45.94
69009;SHT31;56065;52.472;13.380;2023-07-13T07:16:47;35.55;45.56
69009;SHT31;56065;52.472;13.380;2023-07-13T07:19:13;35.87;45.17
69009;SHT31;56065;52.472;13.380;2023-07-13T07:21:38;36.18;45.18
69009;SHT31;56065;52.472;13.380;2023-07-13T07:24:04;36.50;43.83
69009;SHT31;56065;52.472;13.380;2023-07-13T07:26:30;36.55;44.10
69009;SHT31;56065;52.472;13.380;2023-07-13T07:28:56;37.01;44.03
69009;SHT31;56065;52.472;13.380;2023-07-13T07:31:21;37.11;42.49
69009;SHT31;56065;52.472;13.380;2023-07-13T07:33:46;36.60;42.50
69009;SHT31;56065;52.472;13.380;2023-07-13T07:36:12;37.16;41.60
69009;SHT31;56065;52.472;13.380;2023-07-13T07:38:37;37.03;41.61
69009;SHT31;56065;52.472;13.380;2023-07-13T07:41:04;36.86;43.06
69009;SHT31;56065;52.472;13.380;2023-07-13T07:43:30;36.90;42.38
69009;SHT31;56065;52.472;13.380;2023-07-13T07:45:56;36.46;42.62
69009;SHT31;56065;52.472;13.380;2023-07-13T07:48:21;35.37;43.98
69009;SHT31;56065;52.472;13.380;2023-07-13T07:50:47;35.50;44.55
69009;SHT31;56065;52.472;13.380;2023-07-13T07:53:12;35.31;43.69
69009;SHT31;56065;52.472;13.380;2023-07-13T07:55:38;34.47;44.52
69009;SHT31;56065;52.472;13.380;2023-07-13T07:58:04;33.66;45.89
69009;SHT31;56065;52.472;13.380;2023-07-13T08:00:30;32.60;47.91
69009;SHT31;56065;52.472;13.380;2023-07-13T08:02:57;31.89;47.68
69009;SHT31;56065;52.472;13.380;2023-07-13T08:05:23;31.26;47.83
69009;SHT31;56065;52.472;13.380;2023-07-13T08:07:48;30.67;48.64
69009;SHT31;56065;52.472;13.380;2023-07-13T08:10:13;30.59;49.08
69009;SHT31;56065;52.472;13.380;2023-07-13T08:12:39;30.74;49.03
69009;SHT31;56065;52.472;13.380;2023-07-13T08:15:06;32.00;47.81
69009;SHT31;56065;52.472;13.380;2023-07-13T08:17:34;33.54;46.03
69009;SHT31;56065;52.472;13.380;2023-07-13T08:19:59;34.14;45.23
69009;SHT31;56065;52.472;13.380;2023-07-13T08:22:24;33.71;45.92
69009;SHT31;56065;52.472;13.380;2023-07-13T08:24:50;32.91;45.05
69009;SHT31;56065;52.472;13.380;2023-07-13T08:27:21;32.37;45.93
69009;SHT31;56065;52.472;13.380;2023-07-13T08:29:47;32.12;46.35
69009;SHT31;56065;52.472;13.380;2023-07-13T08:32:13;31.96;46.50
69009;SHT31;56065;52.472;13.380;2023-07-13T08:34:39;31.41;46.99
69009;SHT31;56065;52.472;13.380;2023-07-13T08:37:05;30.78;47.77
69009;SHT31;56065;52.472;13.380;2023-07-13T08:39:31;30.60;48.28
69009;SHT31;56065;52.472;13.380;2023-07-13T08:42:01;30.39;48.22
69009;SHT31;56065;52.472;13.380;2023-07-13T08:47:17;29.64;49.87
69009;SHT31;56065;52.472;13.380;2023-07-13T08:49:46;30.41;49.55
69009;SHT31;56065;52.472;13.380;2023-07-13T08:52:29;30.48;49.03
69009;SHT31;56065;52.472;13.380;2023-07-13T08:54:58;31.12;49.56
69009;SHT31;56065;52.472;13.380;2023-07-13T08:57:31;33.37;46.69
69009;SHT31;56065;52.472;13.380;2023-07-13T08:59:58;35.65;44.16
69009;SHT31;56065;52.472;13.380;2023-07-13T09:02:52;37.71;41.87
69009;SHT31;56065;52.472;13.380;2023-07-13T09:05:27;39.54;39.69
69009;SHT31;56065;52.472;13.380;2023-07-13T09:10:48;41.93;37.36
69009;SHT31;56065;52.472;13.380;2023-07-13T09:15:49;42.76;35.83
69009;SHT31;56065;52.472;13.380;2023-07-13T09:18:35;43.52;34.55
69009;SHT31;56065;52.472;13.380;2023-07-13T09:21:05;43.70;34.15
69009;SHT31;56065;52.472;13.380;2023-07-13T09:23:33;43.71;33.12
69009;SHT31;56065;52.472;13.380;2023-07-13T09:26:15;43.83;32.47
69009;SHT31;56065;52.472;13.380;2023-07-13T09:28:44;44.12;33.80
69009;SHT31;56065;52.472;13.380;2023-07-13T09:31:17;44.28;31.17
69009;SHT31;56065;52.472;13.380;2023-07-13T09:33:44;43.92;30.83
69009;SHT31;56065;52.472;13.380;2023-07-13T09:36:20;41.56;32.43
69009;SHT31;56065;52.472;13.380;2023-07-13T09:38:48;38.93;35.19
69009;SHT31;56065;52.472;13.380;2023-07-13T09:44:26;35.67;39.10
69009;SHT31;56065;52.472;13.380;2023-07-13T09:46:54;36.25;38.81
69009;SHT31;56065;52.472;13.380;2023-07-13T09:49:27;36.94;38.34
69009;SHT31;56065;52.472;13.380;2023-07-13T09:52:02;37.85;35.95
69009;SHT31;56065;52.472;13.380;2023-07-13T09:54:28;37.89;36.40
69009;SHT31;56065;52.472;13.380;2023-07-13T09:56:58;37.17;36.08
69009;SHT31;56065;52.472;13.380;2023-07-13T09:59:28;35.81;37.72
69009;SHT31;56065;52.472;13.380;2023-07-13T10:01:54;34.65;39.18
69009;SHT31;56065;52.472;13.380;2023-07-13T10:04:26;33.77;40.24
69009;SHT31;56065;52.472;13.380;2023-07-13T10:07:04;33.33;40.73
69009;SHT31;56065;52.472;13.380;2023-07-13T10:09:30;35.21;40.19
69009;SHT31;56065;52.472;13.380;2023-07-13T10:11:55;37.06;38.70
69009;SHT31;56065;52.472;13.380;2023-07-13T10:14:22;38.66;37.49
69009;SHT31;56065;52.472;13.380;2023-07-13T10:16:59;38.18;36.83
69009;SHT31;56065;52.472;13.380;2023-07-13T10:19:29;39.58;35.88
69009;SHT31;56065;52.472;13.380;2023-07-13T10:22:02;39.76;35.43
69009;SHT31;56065;52.472;13.380;2023-07-13T10:24:37;38.93;35.31
69009;SHT31;56065;52.472;13.380;2023-07-13T10:27:18;37.01;37.06
69009;SHT31;56065;52.472;13.380;2023-07-13T10:29:53;36.14;38.71
69009;SHT31;56065;52.472;13.380;2023-07-13T10:32:21;36.83;37.84
69009;SHT31;56065;52.472;13.380;2023-07-13T10:34:48;37.27;37.40
69009;SHT31;56065;52.472;13.380;2023-07-13T10:37:23;36.01;37.33
69009;SHT31;56065;52.472;13.380;2023-07-13T10:39:54;34.51;38.85
69009;SHT31;56065;52.472;13.380;2023-07-13T10:42:37;33.32;41.03
69009;SHT31;56065;52.472;13.380;2023-07-13T10:45:24;33.03;41.02
69009;SHT31;56065;52.472;13.380;2023-07-13T10:47:52;32.54;40.25
69009;SHT31;56065;52.472;13.380;2023-07-13T10:50:25;33.23;40.41
69009;SHT31;56065;52.472;13.380;2023-07-13T10:52:53;34.79;39.03
69009;SHT31;56065;52.472;13.380;2023-07-13T10:55:56;36.22;37.36
69009;SHT31;56065;52.472;13.380;2023-07-13T10:58:41;37.13;36.49
69009;SHT31;56065;52.472;13.380;2023-07-13T11:01:10;37.88;37.18
69009;SHT31;56065;52.472;13.380;2023-07-13T11:03:59;37.60;36.13
69009;SHT31;56065;52.472;13.380;2023-07-13T11:06:39;38.26;36.98
69009;SHT31;56065;52.472;13.380;2023-07-13T11:11:56;39.31;34.10
69009;SHT31;56065;52.472;13.380;2023-07-13T11:14:35;39.24;32.88
69009;SHT31;56065;52.472;13.380;2023-07-13T11:25:37;39.49;33.29
69009;SHT31;56065;52.472;13.380;2023-07-13T11:36:15;40.90;32.57
69009;SHT31;56065;52.472;13.380;2023-07-13T11:38:43;39.59;34.84
69009;SHT31;56065;52.472;13.380;2023-07-13T11:41:21;39.68;34.28
69009;SHT31;56065;52.472;13.380;2023-07-13T11:43:54;39.76;34.88
69009;SHT31;56065;52.472;13.380;2023-07-13T11:46:22;40.30;34.51
69009;SHT31;56065;52.472;13.380;2023-07-13T11:48:49;40.54;34.62
69009;SHT31;56065;52.472;13.380;2023-07-13T11:51:25;40.33;33.36
69009;SHT31;56065;52.472;13.380;2023-07-13T11:53:54;40.26;33.47
69009;SHT31;56065;52.472;13.380;2023-07-13T11:56:20;40.46;34.29
69009;SHT31;56065;52.472;13.380;2023-07-13T11:58:49;40.94;33.64
69009;SHT31;56065;52.472;13.380;2023-07-13T12:01:20;39.82;33.50
69009;SHT31;56065;52.472;13.380;2023-07-13T12:03:45;40.03;34.15
69009;SHT31;56065;52.472;13.380;2023-07-13T12:06:27;40.17;33.54
69009;SHT31;56065;52.472;13.380;2023-07-13T12:08:58;40.16;32.65
69009;SHT31;56065;52.472;13.380;2023-07-13T12:11:24;39.46;33.79
69009;SHT31;56065;52.472;13.380;2023-07-13T12:13:49;38.97;34.16
69009;SHT31;56065;52.472;13.380;2023-07-13T12:16:23;39.29;34.33
69009;SHT31;56065;52.472;13.380;2023-07-13T12:18:52;39.51;33.92
69009;SHT31;56065;52.472;13.380;2023-07-13T12:21:19;39.07;34.08
69009;SHT31;56065;52.472;13.380;2023-07-13T12:23:48;38.97;33.91
69009;SHT31;56065;52.472;13.380;2023-07-13T12:26:15;38.77;33.94
69009;SHT31;56065;52.472;13.380;2023-07-13T12:28:49;38.59;33.80
69009;SHT31;56065;52.472;13.380;2023-07-13T12:31:41;38.50;34.50
69009;SHT31;56065;52.472;13.380;2023-07-13T12:34:10;38.67;34.57
69009;SHT31;56065;52.472;13.380;2023-07-13T12:41:47;38.15;35.27
69009;SHT31;56065;52.472;13.380;2023-07-13T12:44:26;38.43;35.52
69009;SHT31;56065;52.472;13.380;2023-07-13T12:47:04;38.81;35.63
69009;SHT31;56065;52.472;13.380;2023-07-13T12:49:32;39.22;34.73
69009;SHT31;56065;52.472;13.380;2023-07-13T12:52:02;39.49;34.66
69009;SHT31;56065;52.472;13.380;2023-07-13T12:54:29;39.62;34.05
69009;SHT31;56065;52.472;13.380;2023-07-13T12:56:56;39.69;34.32
69009;SHT31;56065;52.472;13.380;2023-07-13T12:59:24;39.31;34.81
69009;SHT31;56065;52.472;13.380;2023-07-13T13:01:51;39.07;34.64
69009;SHT31;56065;52.472;13.380;2023-07-13T13:04:18;37.89;35.03
69009;SHT31;56065;52.472;13.380;2023-07-13T13:06:47;37.10;34.96
69009;SHT31;56065;52.472;13.380;2023-07-13T13:09:15;36.53;35.42
69009;SHT31;56065;52.472;13.380;2023-07-13T13:11:41;36.25;35.97
69009;SHT31;56065;52.472;13.380;2023-07-13T13:14:07;36.25;37.02
69009;SHT31;56065;52.472;13.380;2023-07-13T13:16:37;36.46;36.40
69009;SHT31;56065;52.472;13.380;2023-07-13T13:19:14;36.38;36.32
69009;SHT31;56065;52.472;13.380;2023-07-13T13:21:41;36.90;36.65
69009;SHT31;56065;52.472;13.380;2023-07-13T13:24:16;37.04;36.43
69009;SHT31;56065;52.472;13.380;2023-07-13T13:26:43;36.04;36.51
69009;SHT31;56065;52.472;13.380;2023-07-13T13:29:20;35.98;37.02
69009;SHT31;56065;52.472;13.380;2023-07-13T13:31:46;35.02;36.92
69009;SHT31;56065;52.472;13.380;2023-07-13T13:34:17;34.89;37.18
69009;SHT31;56065;52.472;13.380;2023-07-13T13:36:43;34.51;37.62
69009;SHT31;56065;52.472;13.380;2023-07-13T13:39:24;34.15;37.83
69009;SHT31;56065;52.472;13.380;2023-07-13T13:41:51;34.40;38.02
69009;SHT31;56065;52.472;13.380;2023-07-13T13:44:18;34.40;37.45
69009;SHT31;56065;52.472;13.380;2023-07-13T13:46:50;34.25;38.07
69009;SHT31;56065;52.472;13.380;2023-07-13T13:49:19;34.17;38.26
69009;SHT31;56065;52.472;13.380;2023-07-13T13:51:46;34.21;38.98
69009;SHT31;56065;52.472;13.380;2023-07-13T13:54:15;33.77;39.88
69009;SHT31;56065;52.472;13.380;2023-07-13T13:56:46;33.06;39.71
69009;SHT31;56065;52.472;13.380;2023-07-13T13:59:13;32.47;40.22
69009;SHT31;56065;52.472;13.380;2023-07-13T14:01:40;32.21;40.35
69009;SHT31;56065;52.472;13.380;2023-07-13T14:04:13;32.33;40.34
69009;SHT31;56065;52.472;13.380;2023-07-13T14:06:39;32.60;40.37
69009;SHT31;56065;52.472;13.380;2023-07-13T14:09:09;33.06;41.28
69009;SHT31;56065;52.472;13.380;2023-07-13T14:11:36;33.23;40.13
69009;SHT31;56065;52.472;13.380;2023-07-13T14:14:02;33.39;40.71
69009;SHT31;56065;52.472;13.380;2023-07-13T14:16:31;33.40;39.83
69009;SHT31;56065;52.472;13.380;2023-07-13T14:18:57;33.23;39.62
69009;SHT31;56065;52.472;13.380;2023-07-13T14:21:25;33.11;40.15
69009;SHT31;56065;52.472;13.380;2023-07-13T14:23:51;33.22;38.75
69009;SHT31;56065;52.472;13.380;2023-07-13T14:26:22;33.11;38.96
69009;SHT31;56065;52.472;13.380;2023-07-13T14:28:51;32.91;39.29
69009;SHT31;56065;52.472;13.380;2023-07-13T14:31:18;32.68;39.89
69009;SHT31;56065;52.472;13.380;2023-07-13T14:33:44;32.53;40.93
69009;SHT31;56065;52.472;13.380;2023-07-13T14:36:24;32.48;41.52
69009;SHT31;56065;52.472;13.380;2023-07-13T14:38:51;32.54;40.77
69009;SHT31;56065;52.472;13.380;2023-07-13T14:41:16;32.75;42.72
69009;SHT31;56065;52.472;13.380;2023-07-13T14:43:42;32.58;40.56
69009;SHT31;56065;52.472;13.380;2023-07-13T14:46:19;32.44;40.71
69009;SHT31;56065;52.472;13.380;2023-07-13T14:48:48;32.55;42.00
69009;SHT31;56065;52.472;13.380;2023-07-13T14:51:13;32.61;41.07
69009;SHT31;56065;52.472;13.380;2023-07-13T14:53:39;32.44;40.18
69009;SHT31;56065;52.472;13.380;2023-07-13T14:56:11;32.30;41.07
69009;SHT31;56065;52.472;13.380;2023-07-13T14:58:36;32.17;41.40
69009;SHT31;56065;52.472;13.380;2023-07-13T15:01:16;31.69;40.00
69009;SHT31;56065;52.472;13.380;2023-07-13T15:03:45;31.05;39.90
69009;SHT31;56065;52.472;13.380;2023-07-13T15:06:12;30.64;40.28
69009;SHT31;56065;52.472;13.380;2023-07-13T15:08:38;30.65;41.50
69009;SHT31;56065;52.472;13.380;2023-07-13T15:11:06;30.78;42.45
69009;SHT31;56065;52.472;13.380;2023-07-13T15:13:31;30.74;42.75
69009;SHT31;56065;52.472;13.380;2023-07-13T15:15:57;30.64;42.34
69009;SHT31;56065;52.472;13.380;2023-07-13T15:18:24;30.91;42.43
69009;SHT31;56065;52.472;13.380;2023-07-13T15:20:51;31.05;41.93
69009;SHT31;56065;52.472;13.380;2023-07-13T15:23:21;30.98;41.16
69009;SHT31;56065;52.472;13.380;2023-07-13T15:25:48;30.98;42.17
69009;SHT31;56065;52.472;13.380;2023-07-13T15:28:14;30.87;41.89
69009;SHT31;56065;52.472;13.380;2023-07-13T15:30:43;30.83;41.52
69009;SHT31;56065;52.472;13.380;2023-07-13T15:33:19;30.52;42.45
69009;SHT31;56065;52.472;13.380;2023-07-13T15:35:47;30.12;42.01
69009;SHT31;56065;52.472;13.380;2023-07-13T15:38:17;29.93;42.23
69009;SHT31;56065;52.472;13.380;2023-07-13T15:40:42;29.58;43.15
69009;SHT31;56065;52.472;13.380;2023-07-13T15:43:12;29.50;44.31
69009;SHT31;56065;52.472;13.380;2023-07-13T15:45:38;29.45;44.52
69009;SHT31;56065;52.472;13.380;2023-07-13T15:48:22;29.35;43.90
69009;SHT31;56065;52.472;13.380;2023-07-13T15:50:50;29.07;43.85
69009;SHT31;56065;52.472;13.380;2023-07-13T15:53:24;28.86;44.42
69009;SHT31;56065;52.472;13.380;2023-07-13T15:55:51;28.69;44.88